sensor_id;sensor_type;location;lat;lon;timestamp;P1;durP1;ratioP1;P2;durP2;ratioP2
21140;SDS011;10728;53.284;10.314;2022-10-16T00:00:30;10.97;;;5.20;;
21140;SDS011;10728;53.284;10.314;2022-10-16T00:02:56;7.97;;;4.80;;
21140;SDS011;10728;53.284;10.314;2022-10-16T00:05:21;9.83;;;5.50;;
21140;SDS011;10728;53.284;10.314;2022-10-16T00:07:46;7.40;;;5.03;;
21140;SDS011;10728;53.284;10.314;2022-10-16T00:10:12;7.30;;;5.17;;
21140;SDS011;10728;53.284;10.314;2022-10-16T00:12:37;7.37;;;5.00;;
21140;SDS011;10728;53.284;10.314;2022-10-16T00:15:03;6.87;;;5.03;;
21140;SDS011;10728;53.284;10.314;2022-10-16T00:17:29;8.43;;;5.33;;
21140;SDS011;10728;53.284;10.314;2022-10-16T00:19:55;6.67;;;4.87;;
21140;SDS011;10728;53.284;10.314;2022-10-16T00:22:21;6.80;;;4.60;;
21140;SDS011;10728;53.284;10.314;2022-10-16T00:24:47;7.17;;;5.17;;
21140;SDS011;10728;53.284;10.314;2022-10-16T00:27:12;7.43;;;4.87;;
21140;SDS011;10728;53.284;10.314;2022-10-16T00:29:38;5.50;;;4.57;;
21140;SDS011;10728;53.284;10.314;2022-10-16T00:32:03;5.87;;;4.30;;
21140;SDS011;10728;53.284;10.314;2022-10-16T00:34:28;6.30;;;4.40;;
21140;SDS011;10728;53.284;10.314;2022-10-16T00:36:54;7.80;;;5.13;;
21140;SDS011;10728;53.284;10.314;2022-10-16T00:39:19;7.47;;;4.67;;
21140;SDS011;10728;53.284;10.314;2022-10-16T00:41:45;7.43;;;4.67;;
21140;SDS011;10728;53.284;10.314;2022-10-16T00:47:09;12.13;;;5.20;;
21140;SDS011;10728;53.284;10.314;2022-10-16T00:49:35;6.17;;;4.70;;
21140;SDS011;10728;53.284;10.314;2022-10-16T00:52:01;8.50;;;4.57;;
21140;SDS011;10728;53.284;10.314;2022-10-16T00:54:28;6.43;;;4.90;;
21140;SDS011;10728;53.284;10.314;2022-10-16T00:56:55;8.20;;;4.40;;
21140;SDS011;10728;53.284;10.314;2022-10-16T00:59:40;9.13;;;4.70;;
21140;SDS011;10728;53.284;10.314;2022-10-16T01:02:09;7.47;;;4.20;;
21140;SDS011;10728;53.284;10.314;2022-10-16T01:04:46;12.23;;;4.27;;
21140;SDS011;10728;53.284;10.314;2022-10-16T01:10:43;7.40;;;3.67;;
21140;SDS011;10728;53.284;10.314;2022-10-16T01:13:21;9.07;;;3.57;;
21140;SDS011;10728;53.284;10.314;2022-10-16T01:15:52;8.13;;;3.53;;
21140;SDS011;10728;53.284;10.314;2022-10-16T01:18:30;5.37;;;3.17;;
21140;SDS011;10728;53.284;10.314;2022-10-16T01:21:01;5.77;;;2.90;;
21140;SDS011;10728;53.284;10.314;2022-10-16T01:28:55;5.63;;;2.40;;
21140;SDS011;10728;53.284;10.314;2022-10-16T01:31:24;6.53;;;2.40;;
21140;SDS011;10728;53.284;10.314;2022-10-16T01:33:55;7.33;;;3.03;;
21140;SDS011;10728;53.284;10.314;2022-10-16T01:36:25;5.97;;;2.83;;
21140;SDS011;10728;53.284;10.314;2022-10-16T01:38:55;5.47;;;2.30;;
21140;SDS011;10728;53.284;10.314;2022-10-16T01:41:28;6.87;;;2.53;;
21140;SDS011;10728;53.284;10.314;2022-10-16T01:44:04;4.40;;;2.47;;
21140;SDS011;10728;53.284;10.314;2022-10-16T01:46:31;6.17;;;2.17;;
21140;SDS011;10728;53.284;10.314;2022-10-16T01:48:59;11.73;;;2.27;;
21140;SDS011;10728;53.284;10.314;2022-10-16T01:51:25;6.83;;;2.33;;
21140;SDS011;10728;53.284;10.314;2022-10-16T01:53:53;9.17;;;2.20;;
21140;SDS011;10728;53.284;10.314;2022-10-16T01:56:19;4.90;;;2.00;;
21140;SDS011;10728;53.284;10.314;2022-10-16T01:59:07;4.10;;;1.60;;
21140;SDS011;10728;53.284;10.314;2022-10-16T02:01:36;7.67;;;1.80;;
21140;SDS011;10728;53.284;10.314;2022-10-16T02:04:07;4.47;;;1.70;;
21140;SDS011;10728;53.284;10.314;2022-10-16T02:06:36;3.80;;;1.77;;
21140;SDS011;10728;53.284;10.314;2022-10-16T02:09:02;4.97;;;1.73;;
21140;SDS011;10728;53.284;10.314;2022-10-16T02:11:27;1.70;;;1.40;;
21140;SDS011;10728;53.284;10.314;2022-10-16T02:13:55;3.07;;;1.50;;
21140;SDS011;10728;53.284;10.314;2022-10-16T02:16:32;3.53;;;1.50;;
21140;SDS011;10728;53.284;10.314;2022-10-16T02:19:02;3.83;;;1.60;;
21140;SDS011;10728;53.284;10.314;2022-10-16T02:21:31;3.67;;;1.37;;
21140;SDS011;10728;53.284;10.314;2022-10-16T02:24:06;6.33;;;1.40;;
21140;SDS011;10728;53.284;10.314;2022-10-16T02:26:40;1.77;;;1.20;;
21140;SDS011;10728;53.284;10.314;2022-10-16T02:43:51;2.57;;;1.30;;
21140;SDS011;10728;53.284;10.314;2022-10-16T02:46:17;4.57;;;1.53;;
21140;SDS011;10728;53.284;10.314;2022-10-16T02:48:43;3.80;;;1.47;;
21140;SDS011;10728;53.284;10.314;2022-10-16T02:51:09;4.83;;;1.40;;
21140;SDS011;10728;53.284;10.314;2022-10-16T02:53:35;5.17;;;1.80;;
21140;SDS011;10728;53.284;10.314;2022-10-16T02:56:01;3.43;;;1.53;;
21140;SDS011;10728;53.284;10.314;2022-10-16T02:58:26;4.23;;;1.40;;
21140;SDS011;10728;53.284;10.314;2022-10-16T03:00:52;5.40;;;1.40;;
21140;SDS011;10728;53.284;10.314;2022-10-16T03:03:17;4.87;;;1.47;;
21140;SDS011;10728;53.284;10.314;2022-10-16T03:05:43;3.60;;;1.53;;
21140;SDS011;10728;53.284;10.314;2022-10-16T03:08:11;6.30;;;1.90;;
21140;SDS011;10728;53.284;10.314;2022-10-16T03:10:37;2.73;;;1.40;;
21140;SDS011;10728;53.284;10.314;2022-10-16T03:13:03;5.87;;;1.50;;
21140;SDS011;10728;53.284;10.314;2022-10-16T03:15:28;7.37;;;1.70;;
21140;SDS011;10728;53.284;10.314;2022-10-16T03:17:54;5.80;;;1.60;;
21140;SDS011;10728;53.284;10.314;2022-10-16T03:20:20;4.60;;;1.70;;
21140;SDS011;10728;53.284;10.314;2022-10-16T03:22:45;5.27;;;1.87;;
21140;SDS011;10728;53.284;10.314;2022-10-16T03:25:11;6.03;;;1.50;;
21140;SDS011;10728;53.284;10.314;2022-10-16T03:27:36;5.53;;;1.50;;
21140;SDS011;10728;53.284;10.314;2022-10-16T03:30:02;4.47;;;1.27;;
21140;SDS011;10728;53.284;10.314;2022-10-16T03:32:28;4.23;;;1.53;;
21140;SDS011;10728;53.284;10.314;2022-10-16T03:34:53;5.60;;;1.70;;
21140;SDS011;10728;53.284;10.314;2022-10-16T03:37:30;7.97;;;1.43;;
21140;SDS011;10728;53.284;10.314;2022-10-16T03:39:55;3.43;;;1.37;;
21140;SDS011;10728;53.284;10.314;2022-10-16T03:42:22;5.20;;;1.50;;
21140;SDS011;10728;53.284;10.314;2022-10-16T03:44:47;3.27;;;1.20;;
21140;SDS011;10728;53.284;10.314;2022-10-16T03:47:13;4.40;;;1.63;;
21140;SDS011;10728;53.284;10.314;2022-10-16T03:49:39;2.37;;;1.17;;
21140;SDS011;10728;53.284;10.314;2022-10-16T03:52:04;3.93;;;1.43;;
21140;SDS011;10728;53.284;10.314;2022-10-16T03:54:30;3.13;;;1.23;;
21140;SDS011;10728;53.284;10.314;2022-10-16T03:56:55;3.10;;;1.27;;
21140;SDS011;10728;53.284;10.314;2022-10-16T03:59:21;4.43;;;1.33;;
21140;SDS011;10728;53.284;10.314;2022-10-16T04:01:46;5.27;;;1.50;;
21140;SDS011;10728;53.284;10.314;2022-10-16T04:04:12;4.87;;;1.50;;
21140;SDS011;10728;53.284;10.314;2022-10-16T04:06:37;5.37;;;1.50;;
21140;SDS011;10728;53.284;10.314;2022-10-16T04:09:03;6.43;;;1.80;;
21140;SDS011;10728;53.284;10.314;2022-10-16T04:11:28;2.97;;;1.13;;
21140;SDS011;10728;53.284;10.314;2022-10-16T04:13:54;3.93;;;1.50;;
21140;SDS011;10728;53.284;10.314;2022-10-16T04:16:20;6.60;;;1.70;;
21140;SDS011;10728;53.284;10.314;2022-10-16T04:18:45;3.73;;;1.50;;
21140;SDS011;10728;53.284;10.314;2022-10-16T04:21:11;5.93;;;1.67;;
21140;SDS011;10728;53.284;10.314;2022-10-16T04:23:36;4.43;;;1.77;;
21140;SDS011;10728;53.284;10.314;2022-10-16T04:26:02;7.57;;;1.60;;
21140;SDS011;10728;53.284;10.314;2022-10-16T04:28:28;4.67;;;1.40;;
21140;SDS011;10728;53.284;10.314;2022-10-16T04:30:53;4.83;;;1.50;;
21140;SDS011;10728;53.284;10.314;2022-10-16T04:33:19;5.07;;;1.53;;
21140;SDS011;10728;53.284;10.314;2022-10-16T04:35:45;5.27;;;1.50;;
21140;SDS011;10728;53.284;10.314;2022-10-16T04:38:10;4.30;;;1.83;;
21140;SDS011;10728;53.284;10.314;2022-10-16T04:40:36;5.60;;;1.77;;
21140;SDS011;10728;53.284;10.314;2022-10-16T04:43:04;6.43;;;1.50;;
21140;SDS011;10728;53.284;10.314;2022-10-16T04:45:30;5.17;;;1.87;;
21140;SDS011;10728;53.284;10.314;2022-10-16T04:47:57;6.30;;;1.70;;
21140;SDS011;10728;53.284;10.314;2022-10-16T04:50:22;5.37;;;1.67;;
21140;SDS011;10728;53.284;10.314;2022-10-16T04:53:03;5.73;;;1.90;;
21140;SDS011;10728;53.284;10.314;2022-10-16T04:55:32;5.57;;;1.63;;
21140;SDS011;10728;53.284;10.314;2022-10-16T04:57:58;3.40;;;1.60;;
21140;SDS011;10728;53.284;10.314;2022-10-16T05:00:23;8.23;;;2.10;;
21140;SDS011;10728;53.284;10.314;2022-10-16T05:02:49;7.23;;;1.77;;
21140;SDS011;10728;53.284;10.314;2022-10-16T05:05:15;5.30;;;2.00;;
21140;SDS011;10728;53.284;10.314;2022-10-16T05:07:41;4.00;;;1.60;;
21140;SDS011;10728;53.284;10.314;2022-10-16T05:10:07;7.47;;;1.97;;
21140;SDS011;10728;53.284;10.314;2022-10-16T05:12:32;7.27;;;1.83;;
21140;SDS011;10728;53.284;10.314;2022-10-16T05:14:59;3.63;;;1.90;;
21140;SDS011;10728;53.284;10.314;2022-10-16T05:17:25;5.03;;;1.70;;
21140;SDS011;10728;53.284;10.314;2022-10-16T05:19:51;6.63;;;2.43;;
21140;SDS011;10728;53.284;10.314;2022-10-16T05:22:16;4.40;;;1.83;;
21140;SDS011;10728;53.284;10.314;2022-10-16T05:24:42;6.50;;;2.20;;
21140;SDS011;10728;53.284;10.314;2022-10-16T05:27:07;4.80;;;1.90;;
21140;SDS011;10728;53.284;10.314;2022-10-16T05:29:33;5.07;;;2.00;;
21140;SDS011;10728;53.284;10.314;2022-10-16T05:31:58;7.83;;;1.90;;
21140;SDS011;10728;53.284;10.314;2022-10-16T05:34:24;5.83;;;2.10;;
21140;SDS011;10728;53.284;10.314;2022-10-16T05:36:49;4.60;;;1.80;;
21140;SDS011;10728;53.284;10.314;2022-10-16T05:39:15;4.17;;;1.90;;
21140;SDS011;10728;53.284;10.314;2022-10-16T05:41:41;3.90;;;1.77;;
21140;SDS011;10728;53.284;10.314;2022-10-16T05:44:07;6.73;;;2.03;;
21140;SDS011;10728;53.284;10.314;2022-10-16T05:46:32;7.10;;;2.10;;
21140;SDS011;10728;53.284;10.314;2022-10-16T05:48:58;8.17;;;1.97;;
21140;SDS011;10728;53.284;10.314;2022-10-16T05:51:24;7.43;;;2.20;;
21140;SDS011;10728;53.284;10.314;2022-10-16T05:53:50;6.93;;;2.17;;
21140;SDS011;10728;53.284;10.314;2022-10-16T05:56:17;5.37;;;2.00;;
21140;SDS011;10728;53.284;10.314;2022-10-16T05:58:42;7.53;;;2.07;;
21140;SDS011;10728;53.284;10.314;2022-10-16T06:01:13;6.60;;;1.83;;
21140;SDS011;10728;53.284;10.314;2022-10-16T06:03:40;6.30;;;2.07;;
21140;SDS011;10728;53.284;10.314;2022-10-16T06:06:12;6.07;;;2.03;;
21140;SDS011;10728;53.284;10.314;2022-10-16T06:08:40;2.63;;;1.97;;
21140;SDS011;10728;53.284;10.314;2022-10-16T06:11:07;4.23;;;1.80;;
21140;SDS011;10728;53.284;10.314;2022-10-16T06:13:34;4.80;;;1.67;;
21140;SDS011;10728;53.284;10.314;2022-10-16T06:16:00;3.33;;;1.90;;
21140;SDS011;10728;53.284;10.314;2022-10-16T06:18:26;4.67;;;1.83;;
21140;SDS011;10728;53.284;10.314;2022-10-16T06:20:55;4.67;;;2.03;;
21140;SDS011;10728;53.284;10.314;2022-10-16T06:23:20;4.60;;;2.03;;
21140;SDS011;10728;53.284;10.314;2022-10-16T06:25:46;9.60;;;2.10;;
21140;SDS011;10728;53.284;10.314;2022-10-16T06:28:13;5.63;;;2.07;;
21140;SDS011;10728;53.284;10.314;2022-10-16T06:30:39;9.33;;;2.20;;
21140;SDS011;10728;53.284;10.314;2022-10-16T06:33:05;2.83;;;1.77;;
21140;SDS011;10728;53.284;10.314;2022-10-16T06:35:30;4.80;;;1.83;;
21140;SDS011;10728;53.284;10.314;2022-10-16T06:37:57;4.23;;;2.40;;
21140;SDS011;10728;53.284;10.314;2022-10-16T06:40:23;4.20;;;2.07;;
21140;SDS011;10728;53.284;10.314;2022-10-16T06:42:48;7.07;;;1.97;;
21140;SDS011;10728;53.284;10.314;2022-10-16T06:45:14;4.90;;;2.07;;
21140;SDS011;10728;53.284;10.314;2022-10-16T06:47:40;7.17;;;1.87;;
21140;SDS011;10728;53.284;10.314;2022-10-16T06:50:06;6.67;;;2.47;;
21140;SDS011;10728;53.284;10.314;2022-10-16T06:52:32;7.07;;;2.10;;
21140;SDS011;10728;53.284;10.314;2022-10-16T06:54:59;5.57;;;2.00;;
21140;SDS011;10728;53.284;10.314;2022-10-16T06:57:25;7.67;;;2.20;;
21140;SDS011;10728;53.284;10.314;2022-10-16T06:59:50;6.67;;;2.20;;
21140;SDS011;10728;53.284;10.314;2022-10-16T07:02:16;5.63;;;2.10;;
21140;SDS011;10728;53.284;10.314;2022-10-16T07:05:20;6.93;;;2.13;;
21140;SDS011;10728;53.284;10.314;2022-10-16T07:07:45;3.60;;;1.80;;
21140;SDS011;10728;53.284;10.314;2022-10-16T07:10:11;3.37;;;2.00;;
21140;SDS011;10728;53.284;10.314;2022-10-16T07:12:36;2.90;;;1.67;;
21140;SDS011;10728;53.284;10.314;2022-10-16T07:15:02;6.97;;;2.40;;
21140;SDS011;10728;53.284;10.314;2022-10-16T07:17:28;5.67;;;2.03;;
21140;SDS011;10728;53.284;10.314;2022-10-16T07:19:54;5.73;;;2.20;;
21140;SDS011;10728;53.284;10.314;2022-10-16T07:22:20;4.63;;;2.20;;
21140;SDS011;10728;53.284;10.314;2022-10-16T07:24:46;3.47;;;1.90;;
21140;SDS011;10728;53.284;10.314;2022-10-16T07:27:13;7.40;;;1.90;;
21140;SDS011;10728;53.284;10.314;2022-10-16T07:29:38;5.13;;;2.10;;
21140;SDS011;10728;53.284;10.314;2022-10-16T07:32:06;4.77;;;2.10;;
21140;SDS011;10728;53.284;10.314;2022-10-16T07:38:29;4.07;;;1.60;;
21140;SDS011;10728;53.284;10.314;2022-10-16T07:42:23;4.43;;;1.67;;
21140;SDS011;10728;53.284;10.314;2022-10-16T08:00:26;2.90;;;1.57;;
21140;SDS011;10728;53.284;10.314;2022-10-16T08:08:19;2.27;;;1.63;;
21140;SDS011;10728;53.284;10.314;2022-10-16T08:19:59;3.60;;;1.47;;
21140;SDS011;10728;53.284;10.314;2022-10-16T08:26:22;4.90;;;1.80;;
21140;SDS011;10728;53.284;10.314;2022-10-16T08:29:44;3.17;;;1.60;;
21140;SDS011;10728;53.284;10.314;2022-10-16T08:32:21;3.07;;;1.40;;
21140;SDS011;10728;53.284;10.314;2022-10-16T08:35:52;4.27;;;1.57;;
21140;SDS011;10728;53.284;10.314;2022-10-16T08:39:01;5.00;;;1.50;;
21140;SDS011;10728;53.284;10.314;2022-10-16T08:50:00;6.37;;;1.57;;
21140;SDS011;10728;53.284;10.314;2022-10-16T09:52:39;2.93;;;0.80;;
21140;SDS011;10728;53.284;10.314;2022-10-16T10:04:36;8.17;;;1.20;;
21140;SDS011;10728;53.284;10.314;2022-10-16T11:27:44;2.67;;;0.88;;
21140;SDS011;10728;53.284;10.314;2022-10-16T11:34:52;4.38;;;0.80;;
21140;SDS011;10728;53.284;10.314;2022-10-16T11:48:58;1.85;;;0.65;;
21140;SDS011;10728;53.284;10.314;2022-10-16T12:01:54;6.22;;;1.00;;
21140;SDS011;10728;53.284;10.314;2022-10-16T12:08:30;4.50;;;1.05;;
21140;SDS011;10728;53.284;10.314;2022-10-16T12:15:47;2.78;;;0.70;;
21140;SDS011;10728;53.284;10.314;2022-10-16T12:18:38;4.57;;;0.85;;
21140;SDS011;10728;53.284;10.314;2022-10-16T12:21:46;5.07;;;0.93;;
21140;SDS011;10728;53.284;10.314;2022-10-16T12:24:44;3.85;;;0.77;;
21140;SDS011;10728;53.284;10.314;2022-10-16T12:41:06;1.83;;;0.80;;
21140;SDS011;10728;53.284;10.314;2022-10-16T12:44:51;3.65;;;0.93;;
21140;SDS011;10728;53.284;10.314;2022-10-16T12:47:22;4.10;;;1.10;;
21140;SDS011;10728;53.284;10.314;2022-10-16T12:53:22;3.78;;;1.08;;
21140;SDS011;10728;53.284;10.314;2022-10-16T13:00:57;1.90;;;0.80;;
21140;SDS011;10728;53.284;10.314;2022-10-16T13:06:18;2.63;;;1.08;;
21140;SDS011;10728;53.284;10.314;2022-10-16T13:08:55;7.57;;;0.90;;
21140;SDS011;10728;53.284;10.314;2022-10-16T13:19:50;5.10;;;1.00;;
21140;SDS011;10728;53.284;10.314;2022-10-16T13:30:22;7.00;;;0.90;;
21140;SDS011;10728;53.284;10.314;2022-10-16T13:32:50;5.03;;;0.80;;
21140;SDS011;10728;53.284;10.314;2022-10-16T13:35:46;3.35;;;0.95;;
21140;SDS011;10728;53.284;10.314;2022-10-16T13:38:35;3.42;;;0.90;;
21140;SDS011;10728;53.284;10.314;2022-10-16T13:41:05;3.72;;;1.10;;
21140;SDS011;10728;53.284;10.314;2022-10-16T13:43:41;3.03;;;0.80;;
21140;SDS011;10728;53.284;10.314;2022-10-16T13:46:20;8.07;;;1.10;;
21140;SDS011;10728;53.284;10.314;2022-10-16T13:49:00;2.03;;;0.90;;
21140;SDS011;10728;53.284;10.314;2022-10-16T13:51:27;2.75;;;0.90;;
21140;SDS011;10728;53.284;10.314;2022-10-16T13:53:54;3.75;;;1.02;;
21140;SDS011;10728;53.284;10.314;2022-10-16T13:56:21;6.93;;;1.02;;
21140;SDS011;10728;53.284;10.314;2022-10-16T13:58:58;4.30;;;0.90;;
21140;SDS011;10728;53.284;10.314;2022-10-16T14:01:40;4.15;;;1.10;;
21140;SDS011;10728;53.284;10.314;2022-10-16T14:04:07;8.63;;;0.80;;
21140;SDS011;10728;53.284;10.314;2022-10-16T14:06:34;4.35;;;1.08;;
21140;SDS011;10728;53.284;10.314;2022-10-16T14:09:02;4.72;;;1.02;;
21140;SDS011;10728;53.284;10.314;2022-10-16T14:11:31;3.67;;;0.80;;
21140;SDS011;10728;53.284;10.314;2022-10-16T14:13:57;5.28;;;1.10;;
21140;SDS011;10728;53.284;10.314;2022-10-16T14:16:23;6.50;;;0.93;;
21140;SDS011;10728;53.284;10.314;2022-10-16T14:19:01;4.73;;;0.80;;
21140;SDS011;10728;53.284;10.314;2022-10-16T14:21:30;6.65;;;1.00;;
21140;SDS011;10728;53.284;10.314;2022-10-16T14:23:57;5.90;;;0.98;;
21140;SDS011;10728;53.284;10.314;2022-10-16T14:26:23;3.08;;;0.80;;
21140;SDS011;10728;53.284;10.314;2022-10-16T14:29:01;3.80;;;0.90;;
21140;SDS011;10728;53.284;10.314;2022-10-16T14:31:33;4.43;;;0.98;;
21140;SDS011;10728;53.284;10.314;2022-10-16T14:34:01;5.60;;;1.02;;
21140;SDS011;10728;53.284;10.314;2022-10-16T14:36:27;6.35;;;0.98;;
21140;SDS011;10728;53.284;10.314;2022-10-16T14:39:05;4.97;;;1.15;;
21140;SDS011;10728;53.284;10.314;2022-10-16T14:41:43;8.38;;;1.10;;
21140;SDS011;10728;53.284;10.314;2022-10-16T14:44:10;3.55;;;0.70;;
21140;SDS011;10728;53.284;10.314;2022-10-16T14:46:37;2.97;;;0.80;;
21140;SDS011;10728;53.284;10.314;2022-10-16T14:51:30;3.10;;;0.82;;
21140;SDS011;10728;53.284;10.314;2022-10-16T14:53:55;3.40;;;0.70;;
21140;SDS011;10728;53.284;10.314;2022-10-16T14:56:22;3.20;;;0.90;;
21140;SDS011;10728;53.284;10.314;2022-10-16T14:58:51;1.70;;;0.63;;
21140;SDS011;10728;53.284;10.314;2022-10-16T15:01:17;5.30;;;0.88;;
21140;SDS011;10728;53.284;10.314;2022-10-16T15:03:43;5.63;;;1.50;;
21140;SDS011;10728;53.284;10.314;2022-10-16T15:06:15;2.55;;;0.68;;
21140;SDS011;10728;53.284;10.314;2022-10-16T15:08:41;3.78;;;0.98;;
21140;SDS011;10728;53.284;10.314;2022-10-16T15:11:14;3.80;;;1.02;;
21140;SDS011;10728;53.284;10.314;2022-10-16T15:13:41;4.47;;;1.20;;
21140;SDS011;10728;53.284;10.314;2022-10-16T15:16:08;4.57;;;0.90;;
21140;SDS011;10728;53.284;10.314;2022-10-16T15:18:36;4.15;;;1.20;;
21140;SDS011;10728;53.284;10.314;2022-10-16T15:21:01;3.22;;;0.98;;
21140;SDS011;10728;53.284;10.314;2022-10-16T15:23:27;3.43;;;0.93;;
21140;SDS011;10728;53.284;10.314;2022-10-16T15:25:53;7.18;;;1.42;;
21140;SDS011;10728;53.284;10.314;2022-10-16T15:28:20;6.63;;;1.10;;
21140;SDS011;10728;53.284;10.314;2022-10-16T15:30:46;3.57;;;0.70;;
21140;SDS011;10728;53.284;10.314;2022-10-16T15:33:17;5.70;;;1.10;;
21140;SDS011;10728;53.284;10.314;2022-10-16T15:35:47;3.20;;;0.80;;
21140;SDS011;10728;53.284;10.314;2022-10-16T15:38:13;4.10;;;1.20;;
21140;SDS011;10728;53.284;10.314;2022-10-16T15:40:40;3.22;;;0.90;;
21140;SDS011;10728;53.284;10.314;2022-10-16T15:43:06;4.00;;;0.83;;
21140;SDS011;10728;53.284;10.314;2022-10-16T15:45:31;2.45;;;0.70;;
21140;SDS011;10728;53.284;10.314;2022-10-16T15:47:57;3.33;;;0.83;;
21140;SDS011;10728;53.284;10.314;2022-10-16T15:50:22;3.65;;;0.80;;
21140;SDS011;10728;53.284;10.314;2022-10-16T15:52:48;3.87;;;1.00;;
21140;SDS011;10728;53.284;10.314;2022-10-16T15:55:15;2.00;;;0.70;;
21140;SDS011;10728;53.284;10.314;2022-10-16T15:57:40;4.03;;;0.98;;
21140;SDS011;10728;53.284;10.314;2022-10-16T16:00:12;4.40;;;0.77;;
21140;SDS011;10728;53.284;10.314;2022-10-16T16:02:41;1.88;;;0.80;;
21140;SDS011;10728;53.284;10.314;2022-10-16T16:05:08;3.33;;;0.90;;
21140;SDS011;10728;53.284;10.314;2022-10-16T16:07:34;3.15;;;0.70;;
21140;SDS011;10728;53.284;10.314;2022-10-16T16:10:00;3.23;;;0.90;;
21140;SDS011;10728;53.284;10.314;2022-10-16T16:12:26;2.97;;;0.80;;
21140;SDS011;10728;53.284;10.314;2022-10-16T16:14:51;1.10;;;0.60;;
21140;SDS011;10728;53.284;10.314;2022-10-16T16:17:17;1.80;;;0.60;;
21140;SDS011;10728;53.284;10.314;2022-10-16T16:19:43;2.67;;;1.10;;
21140;SDS011;10728;53.284;10.314;2022-10-16T16:22:08;5.03;;;0.90;;
21140;SDS011;10728;53.284;10.314;2022-10-16T16:24:34;5.23;;;1.47;;
21140;SDS011;10728;53.284;10.314;2022-10-16T16:26:59;4.93;;;1.20;;
21140;SDS011;10728;53.284;10.314;2022-10-16T16:29:25;2.87;;;1.17;;
21140;SDS011;10728;53.284;10.314;2022-10-16T16:31:50;5.30;;;1.23;;
21140;SDS011;10728;53.284;10.314;2022-10-16T16:34:22;4.47;;;1.40;;
21140;SDS011;10728;53.284;10.314;2022-10-16T16:36:49;4.03;;;1.20;;
21140;SDS011;10728;53.284;10.314;2022-10-16T16:39:14;5.03;;;1.20;;
21140;SDS011;10728;53.284;10.314;2022-10-16T16:41:40;5.90;;;1.80;;
21140;SDS011;10728;53.284;10.314;2022-10-16T16:44:06;5.33;;;1.50;;
21140;SDS011;10728;53.284;10.314;2022-10-16T16:46:33;3.80;;;1.20;;
21140;SDS011;10728;53.284;10.314;2022-10-16T16:49:00;4.40;;;1.13;;
21140;SDS011;10728;53.284;10.314;2022-10-16T16:51:26;3.33;;;1.30;;
21140;SDS011;10728;53.284;10.314;2022-10-16T16:53:53;2.77;;;1.27;;
21140;SDS011;10728;53.284;10.314;2022-10-16T16:56:19;2.60;;;1.40;;
21140;SDS011;10728;53.284;10.314;2022-10-16T16:58:46;2.10;;;1.20;;
21140;SDS011;10728;53.284;10.314;2022-10-16T17:01:13;2.67;;;1.17;;
21140;SDS011;10728;53.284;10.314;2022-10-16T17:03:41;3.77;;;1.37;;
21140;SDS011;10728;53.284;10.314;2022-10-16T17:06:09;2.17;;;1.27;;
21140;SDS011;10728;53.284;10.314;2022-10-16T17:08:36;2.63;;;1.23;;
21140;SDS011;10728;53.284;10.314;2022-10-16T17:11:02;3.53;;;1.23;;
21140;SDS011;10728;53.284;10.314;2022-10-16T17:13:29;5.00;;;1.43;;
21140;SDS011;10728;53.284;10.314;2022-10-16T17:15:56;3.07;;;1.00;;
21140;SDS011;10728;53.284;10.314;2022-10-16T17:18:22;2.60;;;1.20;;
21140;SDS011;10728;53.284;10.314;2022-10-16T17:20:48;3.20;;;1.37;;
21140;SDS011;10728;53.284;10.314;2022-10-16T17:23:14;1.63;;;0.90;;
21140;SDS011;10728;53.284;10.314;2022-10-16T17:25:41;3.43;;;1.07;;
21140;SDS011;10728;53.284;10.314;2022-10-16T17:28:07;2.70;;;1.00;;
21140;SDS011;10728;53.284;10.314;2022-10-16T17:30:36;2.50;;;1.20;;
21140;SDS011;10728;53.284;10.314;2022-10-16T17:33:02;4.40;;;1.10;;
21140;SDS011;10728;53.284;10.314;2022-10-16T17:35:28;2.37;;;1.10;;
21140;SDS011;10728;53.284;10.314;2022-10-16T17:37:54;4.90;;;1.60;;
21140;SDS011;10728;53.284;10.314;2022-10-16T17:40:19;5.97;;;1.70;;
21140;SDS011;10728;53.284;10.314;2022-10-16T17:42:46;3.13;;;1.57;;
21140;SDS011;10728;53.284;10.314;2022-10-16T17:45:12;2.93;;;1.83;;
21140;SDS011;10728;53.284;10.314;2022-10-16T17:47:38;3.67;;;2.17;;
21140;SDS011;10728;53.284;10.314;2022-10-16T17:50:06;3.13;;;1.80;;
21140;SDS011;10728;53.284;10.314;2022-10-16T17:52:32;3.47;;;1.90;;
21140;SDS011;10728;53.284;10.314;2022-10-16T17:54:57;2.00;;;1.70;;
21140;SDS011;10728;53.284;10.314;2022-10-16T17:57:23;2.93;;;1.90;;
21140;SDS011;10728;53.284;10.314;2022-10-16T17:59:49;3.30;;;1.80;;
21140;SDS011;10728;53.284;10.314;2022-10-16T18:02:14;2.80;;;1.40;;
21140;SDS011;10728;53.284;10.314;2022-10-16T18:04:41;2.23;;;1.40;;
21140;SDS011;10728;53.284;10.314;2022-10-16T18:07:08;4.30;;;1.60;;
21140;SDS011;10728;53.284;10.314;2022-10-16T18:09:34;2.17;;;1.33;;
21140;SDS011;10728;53.284;10.314;2022-10-16T18:11:59;3.83;;;1.40;;
21140;SDS011;10728;53.284;10.314;2022-10-16T18:14:26;3.27;;;1.30;;
21140;SDS011;10728;53.284;10.314;2022-10-16T18:16:53;2.47;;;1.07;;
21140;SDS011;10728;53.284;10.314;2022-10-16T18:19:20;3.53;;;1.23;;
21140;SDS011;10728;53.284;10.314;2022-10-16T18:21:46;2.67;;;1.40;;
21140;SDS011;10728;53.284;10.314;2022-10-16T18:24:13;5.23;;;1.47;;
21140;SDS011;10728;53.284;10.314;2022-10-16T18:26:39;4.20;;;3.40;;
21140;SDS011;10728;53.284;10.314;2022-10-16T18:29:05;5.47;;;3.70;;
21140;SDS011;10728;53.284;10.314;2022-10-16T18:31:31;7.27;;;3.90;;
21140;SDS011;10728;53.284;10.314;2022-10-16T18:33:56;4.83;;;3.60;;
21140;SDS011;10728;53.284;10.314;2022-10-16T18:36:24;4.83;;;2.60;;
21140;SDS011;10728;53.284;10.314;2022-10-16T18:38:53;4.03;;;2.07;;
21140;SDS011;10728;53.284;10.314;2022-10-16T18:41:19;3.33;;;2.13;;
21140;SDS011;10728;53.284;10.314;2022-10-16T18:43:45;5.97;;;1.70;;
21140;SDS011;10728;53.284;10.314;2022-10-16T18:46:12;4.30;;;1.70;;
21140;SDS011;10728;53.284;10.314;2022-10-16T18:48:39;5.13;;;1.47;;
21140;SDS011;10728;53.284;10.314;2022-10-16T18:51:10;3.23;;;1.80;;
21140;SDS011;10728;53.284;10.314;2022-10-16T18:53:46;2.67;;;1.37;;
21140;SDS011;10728;53.284;10.314;2022-10-16T18:56:14;4.03;;;1.67;;
21140;SDS011;10728;53.284;10.314;2022-10-16T18:58:40;3.63;;;1.20;;
21140;SDS011;10728;53.284;10.314;2022-10-16T19:01:13;4.27;;;1.60;;
21140;SDS011;10728;53.284;10.314;2022-10-16T19:03:40;2.13;;;1.40;;
21140;SDS011;10728;53.284;10.314;2022-10-16T19:06:16;2.90;;;1.40;;
21140;SDS011;10728;53.284;10.314;2022-10-16T19:08:42;4.73;;;1.37;;
21140;SDS011;10728;53.284;10.314;2022-10-16T19:11:12;2.83;;;1.57;;
21140;SDS011;10728;53.284;10.314;2022-10-16T19:13:40;2.30;;;1.50;;
21140;SDS011;10728;53.284;10.314;2022-10-16T19:16:11;2.40;;;1.60;;
21140;SDS011;10728;53.284;10.314;2022-10-16T19:18:38;4.53;;;1.70;;
21140;SDS011;10728;53.284;10.314;2022-10-16T19:21:04;3.70;;;1.43;;
21140;SDS011;10728;53.284;10.314;2022-10-16T19:23:31;2.97;;;1.83;;
21140;SDS011;10728;53.284;10.314;2022-10-16T19:26:04;3.73;;;1.50;;
21140;SDS011;10728;53.284;10.314;2022-10-16T19:28:33;4.90;;;2.10;;
21140;SDS011;10728;53.284;10.314;2022-10-16T19:33:51;4.03;;;1.90;;
21140;SDS011;10728;53.284;10.314;2022-10-16T19:36:22;4.37;;;1.70;;
21140;SDS011;10728;53.284;10.314;2022-10-16T19:38:51;3.33;;;2.13;;
21140;SDS011;10728;53.284;10.314;2022-10-16T19:41:18;4.07;;;2.17;;
21140;SDS011;10728;53.284;10.314;2022-10-16T19:43:44;3.73;;;2.10;;
21140;SDS011;10728;53.284;10.314;2022-10-16T19:46:11;4.63;;;2.50;;
21140;SDS011;10728;53.284;10.314;2022-10-16T19:48:48;5.40;;;2.40;;